createdAt,value
2022-08-11T00:01:28.016Z,40.42
2022-08-11T00:04:06.077Z,40.67
2022-08-11T00:06:36.656Z,40.62
2022-08-11T00:09:07.388Z,40.59
2022-08-11T00:11:58.427Z,41.22
2022-08-11T00:14:37.130Z,41.58
2022-08-11T00:17:09.257Z,40.67
2022-08-11T00:20:12.826Z,39.60
2022-08-11T00:22:30.056Z,41.30
2022-08-11T00:25:02.359Z,42.24
2022-08-11T00:27:35.127Z,42.16
2022-08-11T00:30:04.693Z,42.29
2022-08-11T00:32:33.140Z,42.92
2022-08-11T00:35:55.990Z,42.38
2022-08-11T00:37:54.575Z,42.21
2022-08-11T00:40:37.243Z,42.33
2022-08-11T00:43:42.353Z,40.89
2022-08-11T00:46:25.784Z,42.38
2022-08-11T00:49:14.519Z,39.31
2022-08-11T00:52:04.617Z,40.49
2022-08-11T00:54:39.289Z,41.18
2022-08-11T00:57:44.290Z,42.26
2022-08-11T01:00:14.013Z,42.84
2022-08-11T01:03:18.565Z,43.19
2022-08-11T01:06:08.113Z,43.37
2022-08-11T01:08:52.675Z,43.38
2022-08-11T01:11:55.765Z,43.98
2022-08-11T01:14:33.937Z,43.80
2022-08-11T01:17:23.576Z,44.10
2022-08-11T01:20:47.654Z,43.88
2022-08-11T01:23:22.284Z,44.65
2022-08-11T01:26:24.275Z,41.93
2022-08-11T01:29:06.655Z,41.05
2022-08-11T01:31:34.004Z,42.04
2022-08-11T01:34:42.343Z,43.06
2022-08-11T01:37:48.153Z,42.85
2022-08-11T01:40:51.855Z,43.63
2022-08-11T01:43:52.395Z,43.54
2022-08-11T01:46:38.409Z,43.66
2022-08-11T01:49:58.540Z,44.09
2022-08-11T01:52:30.170Z,44.02
2022-08-11T01:55:24.314Z,43.82
2022-08-11T01:58:05.692Z,44.12
2022-08-11T02:00:45.209Z,44.38
2022-08-11T02:03:25.040Z,43.91
2022-08-11T02:06:25.072Z,42.58
2022-08-11T02:09:08.238Z,44.70
2022-08-11T02:11:39.084Z,42.51
2022-08-11T02:14:12.235Z,43.84
2022-08-11T02:17:07.636Z,44.53
2022-08-11T02:20:35.823Z,45.35
2022-08-11T02:24:06.612Z,45.44
2022-08-11T02:26:40.910Z,46.17
2022-08-11T02:29:24.777Z,46.08
2022-08-11T02:32:44.726Z,46.07
2022-08-11T02:35:24.829Z,46.43
2022-08-11T02:38:15.564Z,46.75
2022-08-11T02:40:58.181Z,46.52
2022-08-11T02:43:41.329Z,47.59
2022-08-11T02:46:25.135Z,46.96
2022-08-11T02:49:45.146Z,45.49
2022-08-11T02:52:45.715Z,45.35
2022-08-11T02:55:46.013Z,46.00
2022-08-11T02:58:39.705Z,47.33
2022-08-11T03:01:19.335Z,47.80
2022-08-11T03:03:58.278Z,47.66
2022-08-11T03:06:36.117Z,47.63
2022-08-11T03:09:13.336Z,48.49
2022-08-11T03:12:05.053Z,48.36
2022-08-11T03:15:07.074Z,47.42
2022-08-11T03:17:49.479Z,48.37
2022-08-11T03:20:45.527Z,48.84
2022-08-11T03:23:36.256Z,48.42
2022-08-11T03:26:24.521Z,49.09
2022-08-11T03:29:24.937Z,49.08
2022-08-11T03:32:02.314Z,49.49
2022-08-11T03:34:38.626Z,50.61
2022-08-11T03:37:16.608Z,50.16
2022-08-11T03:40:04.892Z,50.10
2022-08-11T03:42:47.515Z,50.01
2022-08-11T03:45:30.202Z,50.89
2022-08-11T03:48:19.077Z,52.26
2022-08-11T03:51:03.146Z,52.59
2022-08-11T03:53:47.862Z,52.28
2022-08-11T03:56:30.543Z,53.22
2022-08-11T03:59:33.190Z,52.74
2022-08-11T04:02:41.956Z,54.16
2022-08-11T04:05:35.753Z,53.74
2022-08-11T04:08:22.017Z,53.19
2022-08-11T04:11:16.785Z,53.80
2022-08-11T04:16:47.658Z,55.09
2022-08-11T04:20:13.930Z,55.10
2022-08-11T04:24:34.742Z,55.35
2022-08-11T04:26:26.410Z,56.15
2022-08-11T04:29:36.319Z,57.85
2022-08-11T04:32:37.810Z,55.62
2022-08-11T04:35:28.393Z,56.17
2022-08-11T04:37:55.662Z,56.54
2022-08-11T04:40:45.015Z,56.45
2022-08-11T04:43:33.721Z,57.53
2022-08-11T04:46:22.633Z,58.31
2022-08-11T04:49:34.329Z,58.06
2022-08-11T04:52:57.991Z,58.04
2022-08-11T04:56:08.765Z,58.25
2022-08-11T04:59:33.486Z,55.63
2022-08-11T05:02:38.313Z,55.64
2022-08-11T05:05:56.266Z,57.68
2022-08-11T05:09:02.340Z,56.49
2022-08-11T05:12:20.945Z,57.13
2022-08-11T05:15:18.152Z,56.53
2022-08-11T05:18:38.359Z,57.06
2022-08-11T05:21:30.808Z,55.00
2022-08-11T05:24:41.244Z,53.96
2022-08-11T05:27:31.092Z,53.13
2022-08-11T05:30:25.179Z,53.78
2022-08-11T05:33:31.155Z,54.06
2022-08-11T05:36:31.549Z,55.01
2022-08-11T05:39:36.169Z,55.29
2022-08-11T05:42:29.799Z,54.67
2022-08-11T05:46:03.361Z,54.69
2022-08-11T05:48:53.845Z,53.84
2022-08-11T05:51:55.073Z,54.28
2022-08-11T05:54:46.093Z,53.10
2022-08-11T05:57:50.694Z,52.12
2022-08-11T06:00:19.051Z,54.02
2022-08-11T06:02:55.918Z,50.91
2022-08-11T06:05:38.536Z,52.03
2022-08-11T06:08:12.779Z,52.53
2022-08-11T06:10:45.000Z,50.48
2022-08-11T06:13:17.695Z,47.78
2022-08-11T06:15:52.714Z,47.28
2022-08-11T06:18:21.062Z,46.87
2022-08-11T06:20:55.737Z,46.91
2022-08-11T06:23:25.528Z,46.19
2022-08-11T06:25:56.522Z,45.49
2022-08-11T06:28:36.593Z,45.83
2022-08-11T06:31:20.072Z,45.60
2022-08-11T06:34:01.590Z,44.95
2022-08-11T06:36:39.130Z,44.89
2022-08-11T06:39:38.047Z,44.03
2022-08-11T06:42:13.818Z,43.68
2022-08-11T06:45:02.180Z,43.00
2022-08-11T06:47:30.854Z,42.15
2022-08-11T06:50:18.905Z,41.86
2022-08-11T06:52:48.152Z,42.24
2022-08-11T06:55:57.535Z,41.93
2022-08-11T06:58:59.456Z,41.08
2022-08-11T07:01:49.799Z,40.59
2022-08-11T07:04:40.106Z,40.36
2022-08-11T07:07:49.333Z,40.67
2022-08-11T07:10:46.651Z,40.89
2022-08-11T07:13:49.316Z,39.41
2022-08-11T07:16:26.376Z,39.62
2022-08-11T07:19:25.547Z,40.05
2022-08-11T07:22:14.824Z,39.47
2022-08-11T07:25:26.754Z,38.77
2022-08-11T07:28:26.472Z,38.58
2022-08-11T07:31:04.251Z,37.20
2022-08-11T07:34:06.463Z,36.60
2022-08-11T07:36:40.741Z,36.99
2022-08-11T07:39:16.080Z,36.77
2022-08-11T07:41:44.087Z,36.12
2022-08-11T07:44:13.084Z,35.40
2022-08-11T07:47:03.043Z,34.65
2022-08-11T07:49:52.035Z,34.42
2022-08-11T07:52:31.246Z,34.93
2022-08-11T07:55:02.981Z,34.57
2022-08-11T07:58:16.698Z,34.11
2022-08-11T08:01:22.437Z,33.38
2022-08-11T08:04:09.648Z,32.84
2022-08-11T08:06:57.521Z,32.67
2022-08-11T08:09:44.367Z,32.58
2022-08-11T08:12:33.045Z,32.81
2022-08-11T08:15:25.341Z,32.61
2022-08-11T08:18:20.878Z,31.98
2022-08-11T08:20:50.507Z,31.16
2022-08-11T08:23:33.896Z,31.62
2022-08-11T08:26:30.619Z,32.41
2022-08-11T08:29:19.964Z,31.75
2022-08-11T08:31:49.442Z,31.36
2022-08-11T08:34:17.988Z,31.78
2022-08-11T08:36:49.029Z,30.81
2022-08-11T08:39:22.037Z,29.99
2022-08-11T08:42:00.245Z,30.31
2022-08-11T08:44:39.006Z,29.58
2022-08-11T08:47:11.042Z,29.71
2022-08-11T08:49:42.345Z,29.18
2022-08-11T08:52:26.328Z,28.76
2022-08-11T08:55:03.296Z,29.22
2022-08-11T08:57:39.403Z,29.15
2022-08-11T09:00:12.897Z,29.72
2022-08-11T09:02:44.605Z,28.40
2022-08-11T09:05:12.876Z,27.96
2022-08-11T09:07:42.129Z,28.21
2022-08-11T09:10:11.926Z,28.00
2022-08-11T09:12:44.764Z,28.58
2022-08-11T09:15:15.152Z,29.24
2022-08-11T09:18:05.467Z,29.19
2022-08-11T09:20:36.013Z,28.47
2022-08-11T09:24:08.014Z,29.18
2022-08-11T09:26:35.038Z,28.60
2022-08-11T09:29:04.996Z,28.49
2022-08-11T09:31:39.842Z,29.11
2022-08-11T09:34:12.496Z,27.62
2022-08-11T09:37:02.637Z,28.79
2022-08-11T09:39:51.183Z,28.26
2022-08-11T09:42:23.550Z,28.63
2022-08-11T09:44:53.523Z,27.84
2022-08-11T09:47:35.656Z,29.43
2022-08-11T09:50:05.771Z,28.93
2022-08-11T09:52:38.183Z,30.35
2022-08-11T09:55:11.508Z,30.13
2022-08-11T09:57:59.468Z,29.82
2022-08-11T10:00:32.536Z,29.90
2022-08-11T10:03:03.087Z,30.22
2022-08-11T10:05:50.476Z,30.70
2022-08-11T10:08:22.652Z,29.75
2022-08-11T10:10:50.634Z,30.24
2022-08-11T10:14:31.155Z,30.30
2022-08-11T10:16:16.629Z,28.73
2022-08-11T10:18:52.943Z,29.44
2022-08-11T10:21:38.623Z,30.62
2022-08-11T10:24:26.666Z,30.22
2022-08-11T10:27:00.052Z,29.77
2022-08-11T10:29:50.042Z,29.46
2022-08-11T10:33:00.256Z,30.18
2022-08-11T10:35:30.039Z,29.60
2022-08-11T10:38:06.806Z,29.15
2022-08-11T10:40:42.381Z,30.69
2022-08-11T10:43:18.083Z,30.86
2022-08-11T10:46:29.943Z,30.84
2022-08-11T10:48:59.613Z,31.09
2022-08-11T10:51:51.497Z,30.90
2022-08-11T10:54:41.601Z,29.50
2022-08-11T10:57:29.511Z,31.09
2022-08-11T10:59:58.914Z,28.95
2022-08-11T11:02:30.515Z,28.79
2022-08-11T11:05:21.628Z,30.04
2022-08-11T11:07:56.614Z,30.15
2022-08-11T11:10:24.454Z,30.08
2022-08-11T11:13:15.776Z,29.76
2022-08-11T11:16:05.752Z,30.29
2022-08-11T11:18:36.943Z,30.58
2022-08-11T11:21:12.060Z,29.31
2022-08-11T11:23:42.160Z,29.83
2022-08-11T11:26:32.087Z,30.72
2022-08-11T11:29:08.779Z,29.43
2022-08-11T11:32:16.947Z,30.14
2022-08-11T11:35:12.343Z,29.36
2022-08-11T11:37:56.205Z,29.24
2022-08-11T11:40:31.975Z,30.23
2022-08-11T11:43:01.569Z,29.67
2022-08-11T11:45:29.276Z,29.00
2022-08-11T11:48:00.000Z,29.34
2022-08-11T11:50:31.637Z,29.63
2022-08-11T11:53:04.225Z,28.27
2022-08-11T11:55:32.678Z,29.04
2022-08-11T11:58:22.403Z,29.34
2022-08-11T12:01:11.645Z,27.40
2022-08-11T12:03:41.005Z,28.09
2022-08-11T12:06:10.148Z,28.95
2022-08-11T12:08:38.978Z,27.57
2022-08-11T12:11:36.786Z,26.71
2022-08-11T12:14:10.686Z,26.31
2022-08-11T12:16:42.969Z,26.77
2022-08-11T12:19:14.204Z,26.79
2022-08-11T12:22:01.618Z,27.29
2022-08-11T12:24:49.354Z,26.69
2022-08-11T12:27:25.771Z,27.58
2022-08-11T12:30:11.617Z,28.22
2022-08-11T12:32:41.656Z,26.98
2022-08-11T12:35:09.637Z,26.85
2022-08-11T12:37:45.122Z,27.63
2022-08-11T12:40:43.517Z,27.43
2022-08-11T12:43:43.470Z,27.33
2022-08-11T12:46:22.081Z,27.85
2022-08-11T12:49:15.272Z,26.00
2022-08-11T12:52:11.359Z,26.60
2022-08-11T12:54:55.871Z,26.66
2022-08-11T12:57:55.238Z,25.42
2022-08-11T13:00:44.051Z,26.83
2022-08-11T13:03:32.503Z,27.08
2022-08-11T13:06:05.364Z,26.97
2022-08-11T13:08:38.763Z,26.76
2022-08-11T13:11:56.720Z,26.88
2022-08-11T13:14:15.262Z,26.92
2022-08-11T13:17:17.771Z,27.03
2022-08-11T13:19:49.890Z,28.07
2022-08-11T13:22:23.354Z,28.53
2022-08-11T13:24:55.572Z,28.30
2022-08-11T13:27:25.161Z,28.83
2022-08-11T13:30:13.593Z,28.52
2022-08-11T13:32:43.857Z,26.63
2022-08-11T13:35:15.670Z,26.01
2022-08-11T13:38:18.533Z,26.41
2022-08-11T13:40:54.728Z,26.29
2022-08-11T13:43:24.427Z,26.73
2022-08-11T13:46:13.804Z,27.35
2022-08-11T13:48:42.716Z,25.42
2022-08-11T13:51:34.336Z,26.92
2022-08-11T13:54:09.507Z,25.20
2022-08-11T13:56:41.726Z,25.91
2022-08-11T13:59:10.705Z,27.34
2022-08-11T14:02:19.406Z,26.05
2022-08-11T14:04:39.822Z,24.67
2022-08-11T14:07:11.048Z,26.56
2022-08-11T14:09:42.990Z,26.31
2022-08-11T14:12:41.656Z,25.71
2022-08-11T14:15:37.446Z,26.92
2022-08-11T14:18:18.985Z,27.06
2022-08-11T14:21:18.396Z,26.06
2022-08-11T14:23:55.269Z,25.95
2022-08-11T14:26:24.097Z,26.81
2022-08-11T14:29:14.297Z,27.23
2022-08-11T14:31:47.563Z,27.34
2022-08-11T14:34:16.652Z,26.45
2022-08-11T14:36:47.606Z,25.93
2022-08-11T14:39:18.864Z,25.82
2022-08-11T14:42:37.003Z,25.83
2022-08-11T14:45:26.343Z,25.46
2022-08-11T14:48:17.835Z,25.32
2022-08-11T14:50:47.494Z,25.67
2022-08-11T14:53:17.765Z,25.72
2022-08-11T14:56:19.280Z,26.13
2022-08-11T14:58:47.359Z,26.52
2022-08-11T15:01:34.013Z,25.40
2022-08-11T15:04:27.301Z,26.33
2022-08-11T15:06:50.166Z,25.16
2022-08-11T15:09:19.222Z,25.48
2022-08-11T15:12:05.745Z,26.23
2022-08-11T15:15:12.138Z,25.54
2022-08-11T15:17:43.263Z,25.88
2022-08-11T15:20:39.503Z,26.51
2022-08-11T15:23:25.775Z,25.02
2022-08-11T15:26:01.174Z,25.19
2022-08-11T15:28:50.532Z,26.06
2022-08-11T15:31:42.402Z,25.88
2022-08-11T15:34:39.605Z,24.85
2022-08-11T15:37:28.025Z,25.62
2022-08-11T15:40:31.385Z,25.09
2022-08-11T15:43:35.226Z,25.88
2022-08-11T15:46:11.506Z,25.68
2022-08-11T15:49:04.341Z,25.92
2022-08-11T15:51:46.510Z,24.41
2022-08-11T15:54:20.484Z,25.16
2022-08-11T15:56:53.497Z,25.16
2022-08-11T15:59:43.821Z,24.84
2022-08-11T16:02:34.385Z,25.16
2022-08-11T16:05:06.121Z,26.00
2022-08-11T16:07:40.576Z,24.78
2022-08-11T16:10:19.867Z,25.17
2022-08-11T16:13:04.530Z,26.28
2022-08-11T16:16:00.837Z,26.31
2022-08-11T16:18:41.591Z,25.73
2022-08-11T16:21:33.820Z,25.94
2022-08-11T16:24:08.685Z,26.12
2022-08-11T16:27:11.006Z,26.62
2022-08-11T16:29:48.083Z,25.55
2022-08-11T16:32:23.947Z,25.38
2022-08-11T16:35:19.640Z,25.94
2022-08-11T16:38:06.663Z,24.15
2022-08-11T16:40:35.953Z,24.30
2022-08-11T16:43:26.484Z,23.88
2022-08-11T16:46:15.736Z,24.54
2022-08-11T16:48:47.121Z,25.13
2022-08-11T16:51:15.594Z,24.84
2022-08-11T16:53:59.871Z,23.54
2022-08-11T16:56:36.883Z,23.78
2022-08-11T16:59:17.100Z,25.30
2022-08-11T17:02:37.909Z,25.06
2022-08-11T17:05:38.482Z,24.62
2022-08-11T17:08:57.583Z,24.42
2022-08-11T17:11:48.721Z,24.81
2022-08-11T17:14:46.507Z,23.95
2022-08-11T17:17:18.786Z,24.15
2022-08-11T17:20:40.817Z,25.57
2022-08-11T17:23:00.493Z,25.43
2022-08-11T17:25:29.471Z,24.66
2022-08-11T17:28:01.694Z,25.54
2022-08-11T17:30:51.438Z,25.64
2022-08-11T17:33:40.341Z,26.17
2022-08-11T17:36:09.419Z,25.28
2022-08-11T17:38:41.469Z,25.36
2022-08-11T17:41:27.935Z,25.89
2022-08-11T17:44:15.293Z,26.56
2022-08-11T17:47:05.888Z,25.24
2022-08-11T17:49:40.218Z,26.28
2022-08-11T17:52:30.666Z,26.60
2022-08-11T17:55:51.145Z,27.34
2022-08-11T17:58:27.484Z,27.54
2022-08-11T18:00:56.717Z,26.19
2022-08-11T18:03:30.213Z,27.07
2022-08-11T18:05:58.583Z,27.17
2022-08-11T18:08:47.145Z,27.60
2022-08-11T18:12:10.903Z,27.84
2022-08-11T18:14:43.205Z,26.87
2022-08-11T18:17:29.767Z,28.29
2022-08-11T18:20:16.538Z,28.47
2022-08-11T18:23:05.321Z,28.57
2022-08-11T18:25:58.347Z,28.76
2022-08-11T18:28:48.605Z,28.03
2022-08-11T18:31:39.822Z,28.62
2022-08-11T18:34:30.497Z,28.87
2022-08-11T18:37:25.911Z,29.04
2022-08-11T18:40:21.384Z,29.20
2022-08-11T18:43:10.649Z,28.82
2022-08-11T18:46:06.864Z,29.07
2022-08-11T18:48:57.772Z,29.44
2022-08-11T18:51:46.066Z,29.61
2022-08-11T18:54:35.104Z,29.65
2022-08-11T18:57:24.456Z,30.00
2022-08-11T19:00:12.541Z,29.86
2022-08-11T19:03:01.799Z,29.75
2022-08-11T19:06:32.421Z,28.00
2022-08-11T19:09:08.845Z,29.88
2022-08-11T19:11:59.717Z,29.66
2022-08-11T19:14:48.457Z,30.26
2022-08-11T19:17:45.875Z,30.42
2022-08-11T19:20:36.585Z,30.12
2022-08-11T19:23:25.904Z,30.86
2022-08-11T19:26:13.219Z,28.59
2022-08-11T19:29:02.982Z,30.30
2022-08-11T19:31:49.811Z,30.15
2022-08-11T19:34:40.195Z,31.20
2022-08-11T19:37:28.875Z,31.30
2022-08-11T19:40:21.439Z,31.13
2022-08-11T19:43:23.539Z,31.31
2022-08-11T19:46:17.216Z,29.52
2022-08-11T19:49:08.266Z,30.62
2022-08-11T19:51:56.894Z,31.38
2022-08-11T19:54:46.147Z,31.37
2022-08-11T19:57:38.768Z,31.22
2022-08-11T20:00:31.124Z,31.49
2022-08-11T20:03:23.082Z,31.51
2022-08-11T20:06:11.287Z,29.83
2022-08-11T20:09:01.433Z,31.23
2022-08-11T20:11:56.136Z,31.80
2022-08-11T20:14:46.241Z,31.69
2022-08-11T20:17:33.520Z,31.47
2022-08-11T20:20:23.013Z,32.19
2022-08-11T20:23:12.799Z,31.95
2022-08-11T20:26:14.219Z,30.23
2022-08-11T20:29:11.162Z,31.33
2022-08-11T20:31:58.628Z,31.32
2022-08-11T20:34:45.155Z,32.33
2022-08-11T20:37:32.936Z,32.14
2022-08-11T20:40:23.767Z,32.19
2022-08-11T20:44:06.950Z,32.38
2022-08-11T20:46:17.756Z,30.45
2022-08-11T20:49:04.972Z,31.39
2022-08-11T20:51:52.876Z,32.04
2022-08-11T20:54:43.799Z,31.93
2022-08-11T21:00:44.031Z,32.33
2022-08-11T21:03:36.246Z,32.62
2022-08-11T21:06:34.231Z,29.88
2022-08-11T21:09:58.020Z,31.18
2022-08-11T21:12:35.685Z,32.34
2022-08-11T21:15:39.052Z,32.02
2022-08-11T21:18:34.591Z,32.85
2022-08-11T21:21:25.789Z,32.68
2022-08-11T21:24:12.882Z,32.58
2022-08-11T21:27:04.907Z,30.72
2022-08-11T21:29:54.752Z,32.39
2022-08-11T21:32:44.615Z,32.36
2022-08-11T21:35:31.449Z,32.37
2022-08-11T21:38:20.212Z,32.54
2022-08-11T21:41:11.125Z,32.86
2022-08-11T21:43:58.243Z,32.46
2022-08-11T21:46:46.026Z,31.59
2022-08-11T21:49:34.439Z,32.22
2022-08-11T21:52:22.428Z,32.83
2022-08-11T21:55:10.420Z,32.86
2022-08-11T21:57:57.672Z,33.11
2022-08-11T22:00:44.740Z,33.30
2022-08-11T22:03:36.507Z,33.40
2022-08-11T22:06:36.774Z,33.11
2022-08-11T22:09:29.132Z,34.33
2022-08-11T22:12:41.126Z,34.57
2022-08-11T22:15:22.628Z,34.34
2022-08-11T22:18:08.441Z,34.73
2022-08-11T22:20:56.584Z,35.15
2022-08-11T22:23:43.957Z,34.78
2022-08-11T22:26:32.668Z,34.41
2022-08-11T22:29:19.311Z,35.36
2022-08-11T22:32:25.426Z,35.01
2022-08-11T22:35:12.838Z,35.45
2022-08-11T22:38:01.138Z,35.83
2022-08-11T22:40:47.763Z,35.79
2022-08-11T22:43:33.645Z,35.67
2022-08-11T22:46:19.547Z,34.78
2022-08-11T22:49:06.932Z,35.80
2022-08-11T22:51:58.831Z,36.14
2022-08-11T22:54:45.901Z,36.75
2022-08-11T22:57:34.433Z,36.83
2022-08-11T23:00:20.814Z,37.68
2022-08-11T23:03:08.330Z,37.38
2022-08-11T23:06:00.097Z,38.01
2022-08-11T23:08:46.338Z,36.79
2022-08-11T23:12:02.565Z,37.83
2022-08-11T23:14:41.818Z,39.11
2022-08-11T23:17:28.143Z,38.93
2022-08-11T23:20:25.429Z,39.05
2022-08-11T23:23:22.841Z,39.44
2022-08-11T23:26:12.266Z,40.13
2022-08-11T23:29:02.036Z,39.37
2022-08-11T23:31:54.119Z,39.21
2022-08-11T23:35:37.277Z,39.50
2022-08-11T23:37:59.896Z,40.22
2022-08-11T23:40:46.720Z,40.75
2022-08-11T23:43:43.438Z,40.52
2022-08-11T23:46:29.313Z,40.87
2022-08-11T23:49:21.843Z,41.10
2022-08-11T23:52:11.161Z,41.25
2022-08-11T23:54:58.162Z,40.11
2022-08-11T23:57:48.823Z,41.03
